Kosrae International Airport

Airport
ICAO code: 
PTSA
IATA Code: 
KSA
Summary
ICAO Region: 
APAC
Location: 
Okat, Kosrae Island
Serving: 
Kosrae
Elevation: 
11 ft
Coordinates: 
Aerial View: 
5° 21' 12.906" N, 162° 57' 19.919" E
Metar
Observation
PTSA 192150Z VRB02KT 10SM SCT019 BKN130 BKN300 26/25 A2989 RMK FIRST
Station
Kosrae Island, Kosrae Airport
Date/Time
2022-05-19 21:50:00
Wind speed
02 kts
Lowest cloud amount
scattered clouds
Temperature
26°C
Dew point
25°C
Humidity
94%
Weather condition
n/a

Kosrae International Airport (IATA: KSA, ICAO: PTSA, FAA LID: TTK) is an airport serving Kosrae, the easternmost state of the Federated States of Micronesia. It is located on an artificial island within the fringing reef about 150 meters from the coast and is connected to the main island by a causeway.

Climatology

Tropical rainforest climate (Köppen climate classification Af)

Runways

Designator Length Width Surface Rops
5/23 1753 46 ASP Yes/Yes
Airport map: 
Aerial View: 

Accidents and Serious Incidents at or in the vicinity of PTSA

SKYbrary Partners:

Safety knowledge contributed by: